createdAt,value
2023-03-28T00:01:29.709Z,2.06
2023-03-28T00:06:31.985Z,2.02
2023-03-28T00:11:33.852Z,2.02
2023-03-28T00:16:39.281Z,2.01
2023-03-28T00:21:47.024Z,1.98
2023-03-28T00:26:49.750Z,1.97
2023-03-28T00:31:51.706Z,1.94
2023-03-28T00:36:55.189Z,1.93
2023-03-28T00:42:01.483Z,1.90
2023-03-28T00:47:05.645Z,1.87
2023-03-28T00:52:08.543Z,1.87
2023-03-28T00:57:10.594Z,1.88
2023-03-28T01:02:12.524Z,1.86
2023-03-28T01:07:16.375Z,1.92
2023-03-28T01:12:20.231Z,1.91
2023-03-28T01:17:21.988Z,1.97
2023-03-28T01:23:02.620Z,2.04
2023-03-28T01:28:24.046Z,2.08
2023-03-28T01:33:44.752Z,2.12
2023-03-28T01:38:58.254Z,2.12
2023-03-28T01:44:25.339Z,2.07
2023-03-28T01:49:41.951Z,2.01
2023-03-28T01:54:46.629Z,1.98
2023-03-28T02:00:15.762Z,1.91
2023-03-28T02:05:38.072Z,1.89
2023-03-28T02:10:46.202Z,1.83
2023-03-28T02:16:00.674Z,1.81
2023-03-28T02:21:34.850Z,1.79
2023-03-28T02:26:47.761Z,1.78
2023-03-28T02:31:59.797Z,1.72
2023-03-28T02:37:29.652Z,1.79
2023-03-28T02:42:39.809Z,1.75
2023-03-28T02:48:36.680Z,1.79
2023-03-28T02:53:51.072Z,1.87
2023-03-28T02:59:07.165Z,1.93
2023-03-28T03:04:09.025Z,1.89
2023-03-28T03:09:11.343Z,1.89
2023-03-28T03:14:13.077Z,1.86
2023-03-28T03:19:15.452Z,1.88
2023-03-28T03:24:17.193Z,1.74
2023-03-28T03:29:20.052Z,1.68
2023-03-28T03:34:21.957Z,1.65
2023-03-28T03:39:30.187Z,1.60
2023-03-28T03:44:32.022Z,1.54
2023-03-28T03:49:33.816Z,1.48
2023-03-28T03:54:38.486Z,1.48
2023-03-28T03:59:40.945Z,1.45
2023-03-28T04:04:47.764Z,1.43
2023-03-28T04:09:58.030Z,1.45
2023-03-28T04:15:02.702Z,1.48
2023-03-28T04:20:13.909Z,1.51
2023-03-28T04:25:34.596Z,1.45
2023-03-28T04:30:43.511Z,1.43
2023-03-28T04:36:09.767Z,1.49
2023-03-28T04:41:13.630Z,1.47
2023-03-28T04:46:33.829Z,1.39
2023-03-28T04:51:43.928Z,1.33
2023-03-28T04:56:49.410Z,1.33
2023-03-28T05:01:58.350Z,1.40
2023-03-28T05:07:03.821Z,1.46
2023-03-28T05:12:06.791Z,1.40
2023-03-28T05:17:24.732Z,1.43
2023-03-28T05:22:36.338Z,1.47
2023-03-28T05:27:38.765Z,1.58
2023-03-28T05:32:41.175Z,1.52
2023-03-28T05:37:47.032Z,1.55
2023-03-28T05:42:49.352Z,1.55
2023-03-28T05:47:56.034Z,1.53
2023-03-28T05:52:58.913Z,1.55
2023-03-28T05:58:00.615Z,1.53
2023-03-28T06:03:17.262Z,1.53
2023-03-28T06:08:20.539Z,1.55
2023-03-28T06:13:22.825Z,1.57
2023-03-28T06:18:26.239Z,1.59
2023-03-28T06:23:28.560Z,1.64
2023-03-28T06:28:31.302Z,1.64
2023-03-28T06:33:52.383Z,1.63
2023-03-28T06:38:58.217Z,1.73
2023-03-28T06:44:02.187Z,1.76
2023-03-28T06:49:29.907Z,1.78
2023-03-28T06:55:05.076Z,1.90
2023-03-28T07:00:08.293Z,1.93
2023-03-28T07:05:40.483Z,1.99
2023-03-28T07:10:43.333Z,2.09
2023-03-28T07:15:45.412Z,2.16
2023-03-28T07:20:51.947Z,2.22
2023-03-28T07:26:07.282Z,2.28
2023-03-28T07:31:09.638Z,2.36
2023-03-28T07:36:19.137Z,2.64
2023-03-28T07:41:26.628Z,2.68
2023-03-28T07:46:28.700Z,2.70
2023-03-28T07:51:32.359Z,2.77
2023-03-28T07:56:34.092Z,2.89
2023-03-28T08:01:46.835Z,2.87
2023-03-28T08:06:49.102Z,2.84
2023-03-28T08:11:51.152Z,3.03
2023-03-28T08:16:53.703Z,3.37
2023-03-28T08:21:58.721Z,3.45
2023-03-28T08:27:01.980Z,3.54
2023-03-28T08:32:06.378Z,3.72
2023-03-28T08:37:08.866Z,3.62
2023-03-28T08:42:28.660Z,3.63
2023-03-28T08:47:36.813Z,3.80
2023-03-28T08:52:40.694Z,3.79
2023-03-28T08:57:45.634Z,3.98
2023-03-28T09:02:49.159Z,4.08
2023-03-28T09:13:49.960Z,4.01
2023-03-28T09:19:36.886Z,4.12
2023-03-28T09:25:32.796Z,4.53
2023-03-28T09:30:43.499Z,4.54
2023-03-28T09:35:47.034Z,4.37
2023-03-28T09:40:54.365Z,4.68
2023-03-28T09:46:22.385Z,4.86
2023-03-28T09:51:42.684Z,4.67
2023-03-28T09:56:46.181Z,4.84
2023-03-28T10:02:00.731Z,4.75
2023-03-28T10:07:08.448Z,5.04
2023-03-28T10:12:10.974Z,5.01
2023-03-28T10:17:27.836Z,5.53
2023-03-28T10:22:33.940Z,6.07
2023-03-28T10:27:37.502Z,5.90
2023-03-28T10:32:42.714Z,5.76
2023-03-28T10:38:05.997Z,5.73
2023-03-28T10:43:39.946Z,5.73
2023-03-28T10:48:56.491Z,5.71
2023-03-28T10:54:27.002Z,5.77
2023-03-28T10:59:35.164Z,5.77
2023-03-28T11:04:56.459Z,5.69
2023-03-28T11:10:11.739Z,5.59
2023-03-28T11:15:38.204Z,5.80
2023-03-28T11:21:34.215Z,5.96
2023-03-28T11:27:08.625Z,6.03
2023-03-28T11:32:55.843Z,6.68
2023-03-28T11:38:06.349Z,6.72
2023-03-28T11:43:16.731Z,6.37
2023-03-28T11:48:43.771Z,6.65
2023-03-28T11:54:10.088Z,6.55
2023-03-28T11:59:22.824Z,6.86
2023-03-28T12:04:30.375Z,7.47
2023-03-28T12:10:00.123Z,7.83
2023-03-28T12:15:14.456Z,7.94
2023-03-28T12:20:56.127Z,7.94
2023-03-28T12:26:40.612Z,7.63
2023-03-28T12:32:19.778Z,8.05
2023-03-28T12:37:28.119Z,8.30
2023-03-28T12:42:36.352Z,8.37
2023-03-28T12:47:46.634Z,8.29
2023-03-28T12:52:49.516Z,8.49
2023-03-28T12:58:21.183Z,8.65
2023-03-28T13:04:01.424Z,8.51
2023-03-28T13:09:44.664Z,8.45
2023-03-28T13:15:01.944Z,8.04
2023-03-28T13:20:17.467Z,7.69
2023-03-28T13:25:25.673Z,7.77
2023-03-28T13:30:29.818Z,8.30
2023-03-28T13:35:44.747Z,8.51
2023-03-28T13:41:06.983Z,8.52
2023-03-28T13:46:16.586Z,8.36
2023-03-28T13:51:26.584Z,8.49
2023-03-28T13:56:34.435Z,8.61
2023-03-28T14:01:49.178Z,9.03
2023-03-28T14:06:52.791Z,8.96
2023-03-28T14:12:12.267Z,8.84
2023-03-28T14:17:36.619Z,8.86
2023-03-28T14:22:52.857Z,8.76
2023-03-28T14:28:07.908Z,8.82
2023-03-28T14:33:14.691Z,8.50
2023-03-28T14:38:32.078Z,8.58
2023-03-28T14:43:34.654Z,8.52
2023-03-28T14:48:39.119Z,8.45
2023-03-28T14:53:44.912Z,8.75
2023-03-28T14:58:48.423Z,8.91
2023-03-28T15:03:59.776Z,8.98
2023-03-28T15:09:11.304Z,8.80
2023-03-28T15:14:16.969Z,8.84
2023-03-28T15:19:32.077Z,8.48
2023-03-28T15:24:36.615Z,8.51
2023-03-28T15:29:39.338Z,8.64
2023-03-28T15:34:46.974Z,8.53
2023-03-28T15:39:50.885Z,8.41
2023-03-28T15:45:28.433Z,8.24
2023-03-28T15:50:37.429Z,8.30
2023-03-28T15:55:40.785Z,8.35
2023-03-28T16:00:49.273Z,8.29
2023-03-28T16:06:04.596Z,8.24
2023-03-28T16:11:21.422Z,8.33
2023-03-28T16:16:56.125Z,8.39
2023-03-28T16:22:17.690Z,8.26
2023-03-28T16:27:20.696Z,8.31
2023-03-28T16:32:23.876Z,8.44
2023-03-28T16:37:25.892Z,8.48
2023-03-28T16:42:28.580Z,8.54
2023-03-28T16:47:30.651Z,8.84
2023-03-28T16:52:32.605Z,9.06
2023-03-28T16:57:44.730Z,9.11
2023-03-28T17:02:52.310Z,9.26
2023-03-28T17:07:54.027Z,9.52
2023-03-28T17:12:56.641Z,9.50
2023-03-28T17:17:59.179Z,9.40
2023-03-28T17:23:01.071Z,9.27
2023-03-28T17:28:02.820Z,9.02
2023-03-28T17:33:04.730Z,8.35
2023-03-28T17:38:06.745Z,7.85
2023-03-28T17:43:09.341Z,7.55
2023-03-28T17:48:12.604Z,6.91
2023-03-28T17:53:14.361Z,6.62
2023-03-28T17:58:16.138Z,6.37
2023-03-28T18:03:18.121Z,6.10
2023-03-28T18:08:40.359Z,5.89
2023-03-28T18:13:42.969Z,5.79
2023-03-28T18:18:44.828Z,5.55
2023-03-28T18:23:48.139Z,5.35
2023-03-28T18:28:50.348Z,5.06
2023-03-28T18:33:53.984Z,4.83
2023-03-28T18:38:56.255Z,4.84
2023-03-28T18:43:58.126Z,4.79
2023-03-28T18:49:00.737Z,4.55
2023-03-28T18:54:03.694Z,4.52
2023-03-28T18:59:05.545Z,4.17
2023-03-28T19:04:07.850Z,3.78
2023-03-28T19:09:10.734Z,3.41
2023-03-28T19:14:13.059Z,3.27
2023-03-28T19:19:15.265Z,3.21
2023-03-28T19:24:19.904Z,3.21
2023-03-28T19:29:21.665Z,3.29
2023-03-28T19:34:23.714Z,3.33
2023-03-28T19:39:25.405Z,3.18
2023-03-28T19:44:27.183Z,3.23
2023-03-28T19:49:28.928Z,3.27
2023-03-28T19:54:30.588Z,3.34
2023-03-28T19:59:32.267Z,3.42
2023-03-28T20:04:34.093Z,3.56
2023-03-28T20:09:35.931Z,3.60
2023-03-28T20:14:37.603Z,3.68
2023-03-28T20:19:39.423Z,3.80
2023-03-28T20:24:41.269Z,4.07
2023-03-28T20:29:43.029Z,4.18
2023-03-28T20:34:44.856Z,4.20
2023-03-28T20:39:48.047Z,4.15
2023-03-28T20:44:49.994Z,4.08
2023-03-28T20:49:56.763Z,3.94
2023-03-28T20:54:58.927Z,3.88
2023-03-28T21:00:01.705Z,3.99
2023-03-28T21:05:03.487Z,4.02
2023-03-28T21:10:07.372Z,3.98
2023-03-28T21:15:12.930Z,4.03
2023-03-28T21:20:14.772Z,4.14
2023-03-28T21:25:16.959Z,4.25
2023-03-28T21:30:19.392Z,4.27
2023-03-28T21:35:21.612Z,4.26
2023-03-28T21:40:23.632Z,4.33
2023-03-28T21:45:25.318Z,4.30
2023-03-28T21:50:31.315Z,4.30
2023-03-28T21:55:33.040Z,4.35
2023-03-28T22:00:35.173Z,4.35
2023-03-28T22:05:42.847Z,4.46
2023-03-28T22:10:50.294Z,4.54
2023-03-28T22:15:53.229Z,4.60
2023-03-28T22:20:55.232Z,4.62
2023-03-28T22:25:58.448Z,4.74
2023-03-28T22:31:00.461Z,4.79
2023-03-28T22:36:02.500Z,4.85
2023-03-28T22:41:04.758Z,4.93
2023-03-28T22:46:06.622Z,5.03
2023-03-28T22:51:11.851Z,5.12
2023-03-28T22:56:13.817Z,5.17
2023-03-28T23:01:15.600Z,5.22
2023-03-28T23:06:17.579Z,5.21
2023-03-28T23:11:19.908Z,5.25
2023-03-28T23:16:22.043Z,5.24
2023-03-28T23:21:24.426Z,5.31
2023-03-28T23:26:26.399Z,5.38
2023-03-28T23:31:28.306Z,5.40
2023-03-28T23:36:30.083Z,5.45
2023-03-28T23:41:32.089Z,5.48
2023-03-28T23:46:34.157Z,5.51
2023-03-28T23:51:36.439Z,5.62
2023-03-28T23:56:38.742Z,5.64
